Time;durP1;ratioP1;P1;durP2;ratioP2;P2;SDS_P1;SDS_P2;PMS_P1;PMS_P2;Temp;Humidity;BMP_temperature;BMP_pressure;BME280_temperature;BME280_humidity;BME280_pressure;Samples;Min_cycle;Max_cycle;Signal;HPM_P1;HPM_P2
2022/01/01 00:01:41;;;;;;;25.17;16.88;;;;;;;11.68;99.20;101327.81;4882905;29;20056;-89
2022/01/01 00:04:09;;;;;;;25.10;16.35;;;;;;;11.31;99.13;101270.81;4876763;29;20136;-90
2022/01/01 00:06:36;;;;;;;23.85;16.48;;;;;;;11.55;99.21;101303.53;4882962;29;20045;-90
2022/01/01 00:09:04;;;;;;;22.52;15.23;;;;;;;11.63;99.34;101316.50;4884575;29;20053;-89
2022/01/01 00:11:33;;;;;;;20.08;14.25;;;;;;;11.26;99.45;101254.19;4881168;29;20053;-89
2022/01/01 00:14:00;;;;;;;21.83;14.45;;;;;;;11.62;99.90;101313.00;4881629;29;20084;-89
2022/01/01 00:16:30;;;;;;;21.92;14.32;;;;;;;11.43;100.00;101294.22;4883065;29;20048;-90
2022/01/01 00:18:57;;;;;;;22.00;13.73;;;;;;;11.32;99.76;101275.19;4886739;29;20056;-90
2022/01/01 00:21:24;;;;;;;20.60;14.25;;;;;;;11.44;99.83;101292.44;4879615;29;20056;-89
2022/01/01 00:23:51;;;;;;;21.70;14.50;;;;;;;11.44;99.93;101292.44;4882577;29;20584;-91
2022/01/01 00:26:18;;;;;;;19.00;13.65;;;;;;;11.44;99.28;101277.41;4888248;29;20070;-89
2022/01/01 00:28:45;;;;;;;23.35;15.25;;;;;;;11.47;99.32;101287.91;4873542;29;20520;-89
2022/01/01 00:31:12;;;;;;;20.13;14.48;;;;;;;11.29;99.19;101243.47;4879243;29;20049;-90
2022/01/01 00:33:39;;;;;;;23.20;14.05;;;;;;;11.28;99.03;101244.41;4877654;29;20496;-90
2022/01/01 00:36:06;;;;;;;20.38;14.27;;;;;;;11.36;99.16;101257.38;4881943;29;20117;-90
2022/01/01 00:38:33;;;;;;;21.73;13.93;;;;;;;11.60;99.73;101305.09;4883118;29;20223;-90
2022/01/01 00:41:00;;;;;;;22.20;14.20;;;;;;;11.52;99.86;101295.66;4869628;29;20411;-89
2022/01/01 00:43:26;;;;;;;19.63;13.80;;;;;;;11.42;99.83;101273.94;4892412;29;20071;-90
2022/01/01 00:45:53;;;;;;;19.02;13.00;;;;;;;11.62;99.84;101307.69;4888542;29;20049;-88
2022/01/01 00:48:20;;;;;;;19.27;12.68;;;;;;;11.48;99.86;101294.94;4889405;29;20067;-90
2022/01/01 00:50:53;;;;;;;17.55;12.35;;;;;;;11.47;99.88;101285.25;4887259;29;20053;-90
2022/01/01 00:53:20;;;;;;;17.23;11.55;;;;;;;11.41;99.72;101285.47;4881600;29;20045;-91
2022/01/01 00:55:49;;;;;;;18.27;11.93;;;;;;;11.37;100.00;101283.81;4879521;29;20053;-89
2022/01/01 00:58:16;;;;;;;16.98;11.88;;;;;;;11.32;100.00;101277.84;4878512;29;20055;-90
2022/01/01 01:00:43;;;;;;;17.75;11.93;;;;;;;11.46;100.00;101312.69;4882623;29;20057;-91
2022/01/01 01:03:14;;;;;;;18.98;12.25;;;;;;;11.52;100.00;101323.06;4881723;29;20134;-88
2022/01/01 01:05:43;;;;;;;21.70;12.23;;;;;;;11.36;100.00;101295.34;4870653;29;20049;-90
2022/01/01 01:08:11;;;;;;;19.33;12.63;;;;;;;11.51;100.00;101309.84;4880455;29;20092;-89
2022/01/01 01:10:39;;;;;;;15.40;11.93;;;;;;;11.51;100.00;101307.19;4871920;29;20053;-89
2022/01/01 01:13:08;;;;;;;18.15;13.23;;;;;;;11.52;100.00;101314.22;4877337;29;20060;-89
2022/01/01 01:15:35;;;;;;;15.68;11.48;;;;;;;11.34;100.00;101270.69;4878652;29;20060;-88
2022/01/01 01:18:04;;;;;;;17.67;12.25;;;;;;;11.43;100.00;101288.94;4872114;29;20523;-88
2022/01/01 01:20:34;;;;;;;16.05;11.68;;;;;;;11.23;100.00;101257.81;4880049;29;20049;-88
2022/01/01 01:23:01;;;;;;;18.30;11.77;;;;;;;11.42;100.00;101289.84;4879288;29;20056;-90
2022/01/01 01:25:46;;;;;;;15.52;10.50;;;;;;;11.30;100.00;101263.78;4879290;29;20075;-90
2022/01/01 01:28:16;;;;;;;16.98;10.93;;;;;;;11.40;100.00;101285.50;4873219;29;20050;-89
2022/01/01 01:30:45;;;;;;;15.27;11.02;;;;;;;11.53;100.00;101319.47;4875104;29;20056;-89
2022/01/01 01:33:13;;;;;;;15.07;10.80;;;;;;;11.28;100.00;101284.16;4868821;29;20059;-88
2022/01/01 01:35:39;;;;;;;13.57;9.70;;;;;;;11.32;100.00;101284.94;4874308;29;20048;-90
2022/01/01 01:38:09;;;;;;;13.82;9.23;;;;;;;11.57;99.81;101331.72;4876968;29;20432;-92
2022/01/01 01:40:41;;;;;;;13.15;10.20;;;;;;;11.32;99.77;101296.41;4874688;29;20109;-89
2022/01/01 01:43:11;;;;;;;14.35;9.35;;;;;;;11.36;99.42;101298.00;4880380;29;20493;-88
2022/01/01 01:45:39;;;;;;;14.52;9.52;;;;;;;11.39;99.33;101300.56;4874474;29;20080;-90
2022/01/01 01:48:07;;;;;;;13.45;9.23;;;;;;;11.38;99.25;101304.13;4877768;29;20086;-90
2022/01/01 01:50:37;;;;;;;13.93;9.55;;;;;;;11.30;99.61;101294.72;4882421;29;20061;-89
2022/01/01 01:53:08;;;;;;;14.15;9.23;;;;;;;11.46;99.30;101310.03;4880474;29;20049;-91
2022/01/01 01:55:35;;;;;;;15.43;9.43;;;;;;;11.44;98.80;101319.84;4882560;29;20049;-90
2022/01/01 01:58:03;;;;;;;13.85;8.82;;;;;;;11.20;99.21;101286.22;4880602;29;20057;-89
2022/01/01 02:03:14;;;;;;;15.15;8.57;;;;;;;11.40;99.42;101323.50;4882709;29;20121;-87
2022/01/01 02:05:45;;;;;;;12.50;9.07;;;;;;;11.44;99.10;101330.44;4872658;29;20259;-90
2022/01/01 02:08:14;;;;;;;13.05;8.15;;;;;;;11.54;99.28;101345.09;4883529;29;20550;-87
2022/01/01 02:10:41;;;;;;;12.65;8.20;;;;;;;11.33;99.47;101305.22;4878752;29;20152;-91
2022/01/01 02:13:18;;;;;;;12.48;7.95;;;;;;;11.56;99.00;101335.28;4883416;29;20098;-92
2022/01/01 02:18:19;;;;;;;11.00;8.15;;;;;;;11.49;99.18;101336.44;4879408;29;20061;-89
2022/01/01 02:20:49;;;;;;;12.48;8.13;;;;;;;11.56;99.31;101340.59;4886474;29;20055;-88
2022/01/01 02:23:18;;;;;;;12.23;8.40;;;;;;;11.65;98.71;101347.34;4879434;29;20552;-90
2022/01/01 02:25:49;;;;;;;12.93;8.45;;;;;;;11.64;98.59;101336.81;4883204;29;20922;-88
2022/01/01 02:28:16;;;;;;;13.52;8.45;;;;;;;11.21;98.88;101280.00;4883540;29;20061;-88
2022/01/01 02:30:44;;;;;;;10.73;8.00;;;;;;;11.28;98.89;101285.97;4872549;29;20504;-90
2022/01/01 02:33:11;;;;;;;9.85;7.45;;;;;;;11.53;99.11;101329.22;4889609;29;20535;-89
2022/01/01 02:35:39;;;;;;;11.27;7.70;;;;;;;11.49;98.54;101317.84;4874767;29;20065;-88
2022/01/01 02:38:07;;;;;;;10.52;7.90;;;;;;;11.47;98.97;101327.69;4878813;29;20562;-89
2022/01/01 02:40:35;;;;;;;12.00;7.28;;;;;;;11.60;98.86;101347.53;4883254;29;20120;-88
2022/01/01 02:43:03;;;;;;;9.13;6.75;;;;;;;11.46;98.78;101325.09;4888654;29;20092;-88
2022/01/01 02:45:30;;;;;;;10.32;7.75;;;;;;;11.36;99.15;101305.97;4880429;29;20049;-88
2022/01/01 02:47:58;;;;;;;12.20;7.60;;;;;;;11.53;99.69;101346.00;4878317;29;20184;-87
2022/01/01 02:50:24;;;;;;;11.23;7.53;;;;;;;11.49;99.79;101339.06;4883262;29;20085;-87
2022/01/01 02:52:52;;;;;;;10.65;7.30;;;;;;;11.35;99.30;101308.66;4866457;29;20053;-87
2022/01/01 02:55:19;;;;;;;11.73;8.15;;;;;;;11.27;99.87;101301.00;4876603;29;20060;-86
2022/01/01 02:57:46;;;;;;;12.95;7.65;;;;;;;11.25;99.64;101309.00;4879419;29;20052;-88
2022/01/01 03:00:14;;;;;;;12.05;7.80;;;;;;;11.29;99.50;101325.69;4887106;29;20821;-87
2022/01/01 03:02:41;;;;;;;10.80;8.40;;;;;;;11.03;99.83;101286.81;4883649;29;20057;-87
2022/01/01 03:05:08;;;;;;;11.43;8.75;;;;;;;11.42;100.00;101340.22;4888726;29;20088;-87
2022/01/01 03:07:38;;;;;;;11.55;7.40;;;;;;;11.30;100.00;101315.94;4874543;29;20041;-88
2022/01/01 03:10:05;;;;;;;10.48;8.18;;;;;;;11.52;99.99;101360.19;4897171;29;20071;-89
2022/01/01 03:12:35;;;;;;;14.00;7.82;;;;;;;11.51;99.95;101362.91;4895473;29;20113;-88
2022/01/01 03:15:03;;;;;;;10.70;7.63;;;;;;;11.42;99.05;101334.06;4904995;29;20041;-89
2022/01/01 03:17:38;;;;;;;11.30;8.15;;;;;;;11.11;99.35;101283.91;4897061;29;20093;-90
2022/01/01 03:20:07;;;;;;;12.02;7.78;;;;;;;11.39;98.37;101318.25;4889900;29;20627;-90
2022/01/01 03:22:36;;;;;;;;;;;;;;;11.58;98.70;101360.00;4883318;29;20060;-88
2022/01/01 03:25:06;;;;;;;12.48;9.10;;;;;;;11.39;100.00;101312.94;4893938;29;19943;-88
2022/01/01 03:27:36;;;;;;;14.68;9.35;;;;;;;11.45;100.00;101323.34;4869488;29;20053;-89
2022/01/01 03:30:09;;;;;;;12.95;9.30;;;;;;;11.37;99.22;101322.75;4883792;29;20049;-88
2022/01/01 03:32:36;;;;;;;15.00;9.90;;;;;;;11.26;99.28;101315.19;4888816;29;20057;-88
2022/01/01 03:35:04;;;;;;;16.70;10.23;;;;;;;11.29;99.26;101324.81;4881511;29;20093;-88
2022/01/01 03:37:32;;;;;;;14.93;9.88;;;;;;;11.20;99.42;101310.06;4881933;29;20037;-89
2022/01/01 03:40:02;;;;;;;14.82;10.02;;;;;;;11.22;100.00;101314.41;4882739;29;20063;-88
2022/01/01 03:42:32;;;;;;;15.88;10.57;;;;;;;11.18;99.81;101319.88;4879875;29;20048;-87
2022/01/01 03:44:59;;;;;;;14.80;10.45;;;;;;;11.13;99.73;101314.75;4883770;29;20061;-88
2022/01/01 03:47:26;;;;;;;17.20;10.45;;;;;;;11.22;99.00;101311.75;4879668;29;20141;-88
2022/01/01 03:49:56;;;;;;;17.77;11.10;;;;;;;11.24;99.33;101322.31;4882052;29;20149;-91
2022/01/01 03:52:31;;;;;;;15.88;11.00;;;;;;;11.13;99.13;101312.09;4872380;29;20060;-90
2022/01/01 03:55:16;;;;;;;15.75;11.30;;;;;;;11.25;98.94;101329.34;4886153;29;20101;-91
2022/01/01 03:58:01;;;;;;;16.63;10.82;;;;;;;11.13;99.43;101328.00;4890635;29;20049;-89
2022/01/01 04:00:42;;;;;;;14.50;10.73;;;;;;;11.27;99.41;101343.41;4880855;29;20065;-90
2022/01/01 04:03:40;;;;;;;14.90;11.20;;;;;;;11.14;98.76;101321.78;4885903;29;20128;-90
2022/01/01 04:06:13;;;;;;;13.88;10.55;;;;;;;11.00;99.07;101304.63;4884041;29;20053;-89
2022/01/01 04:09:00;;;;;;;17.23;11.07;;;;;;;11.16;99.54;101349.09;4883440;29;20063;-90
2022/01/01 04:11:32;;;;;;;;;;;;;;;11.25;100.00;101361.16;4886936;29;20061;-90
2022/01/01 04:14:00;;;;;;;22.15;11.20;;;;;;;11.07;99.93;101329.97;4887873;29;20386;-90
2022/01/01 04:16:38;;;;;;;17.23;11.25;;;;;;;10.89;99.90;101305.81;4892801;29;20048;-91
2022/01/01 04:19:39;;;;;;;17.52;12.20;;;;;;;11.04;100.00;101338.91;4872790;29;20109;-90
2022/01/01 04:22:16;;;;;;;16.48;11.57;;;;;;;11.31;100.00;101376.00;4867291;29;20083;-90
2022/01/01 04:25:02;;;;;;;18.75;11.93;;;;;;;11.07;99.52;101344.09;4882141;29;20517;-91
2022/01/01 04:27:44;;;;;;;17.33;11.52;;;;;;;11.16;99.67;101365.00;4881415;29;20080;-90
2022/01/01 04:30:31;;;;;;;19.23;11.45;;;;;;;11.29;100.00;101378.72;4882546;29;20057;-90
2022/01/01 04:33:03;;;;;;;20.02;11.32;;;;;;;11.10;99.50;101353.72;4886848;29;20057;-91
2022/01/01 04:35:41;;;;;;;15.95;11.00;;;;;;;10.95;99.31;101336.56;4889477;29;20053;-90
2022/01/01 04:38:30;;;;;;;16.40;11.15;;;;;;;11.28;99.59;101394.66;4884606;29;20055;-90
2022/01/01 04:41:17;;;;;;;18.55;10.80;;;;;;;11.13;98.93;101359.81;4868582;29;20053;-90
2022/01/01 04:43:49;;;;;;;16.48;11.15;;;;;;;11.20;99.23;101382.53;4891027;29;20048;-90
2022/01/01 04:46:18;;;;;;;17.10;11.25;;;;;;;11.15;99.45;101376.53;4885558;29;20045;-90
2022/01/01 04:48:47;;;;;;;19.17;11.43;;;;;;;11.18;99.29;101362.28;4888014;29;20075;-90
2022/01/01 04:51:17;;;;;;;21.33;12.27;;;;;;;11.28;98.99;101398.19;4888953;29;20057;-92
2022/01/01 04:53:48;;;;;;;21.10;12.18;;;;;;;10.98;98.78;101340.91;4886302;29;20053;-90
2022/01/01 04:56:19;;;;;;;18.40;11.00;;;;;;;10.95;98.90;101341.00;4878061;29;20048;-90
2022/01/01 04:58:48;;;;;;;14.70;10.30;;;;;;;11.03;98.82;101349.53;4878786;29;20049;-91
2022/01/01 05:01:24;;;;;;;17.85;11.43;;;;;;;11.09;99.47;101360.81;4891061;29;20274;-90
2022/01/01 05:03:57;;;;;;;16.98;11.35;;;;;;;10.90;99.11;101327.91;4895479;29;20065;-91
2022/01/01 05:06:24;;;;;;;18.88;11.77;;;;;;;10.98;99.40;101335.59;4898190;29;20051;-89
2022/01/01 05:08:51;;;;;;;18.35;12.43;;;;;;;11.10;99.16;101361.69;4891587;29;20101;-90
2022/01/01 05:11:23;;;;;;;16.10;10.60;;;;;;;11.01;99.27;101335.50;4897417;29;20057;-91
2022/01/01 05:13:56;;;;;;;17.30;11.02;;;;;;;10.97;98.14;101320.63;4896956;29;20060;-90
2022/01/01 05:16:26;;;;;;;15.98;11.32;;;;;;;11.09;99.01;101344.03;4893903;29;20116;-90
2022/01/01 05:19:00;;;;;;;17.33;11.65;;;;;;;10.99;98.47;101326.75;4887434;29;20057;-90
2022/01/01 05:21:32;;;;;;;14.02;10.50;;;;;;;10.96;98.74;101326.84;4882531;29;20080;-90
2022/01/01 05:24:03;;;;;;;19.35;11.63;;;;;;;11.24;99.02;101385.94;4883887;29;20417;-91
2022/01/01 05:26:36;;;;;;;14.80;10.65;;;;;;;11.11;99.08;101363.41;4882138;29;20141;-90
2022/01/01 05:29:07;;;;;;;20.33;13.15;;;;;;;11.07;99.37;101354.69;4890723;29;20501;-91
2022/01/01 05:31:41;;;;;;;20.98;13.88;;;;;;;11.11;98.88;101364.28;4883219;29;20049;-91
2022/01/01 05:34:11;;;;;;;19.45;12.02;;;;;;;11.04;99.04;101345.97;4891489;29;20053;-91
2022/01/01 05:36:43;;;;;;;17.35;11.98;;;;;;;11.23;99.05;101389.50;4882310;29;20053;-90
2022/01/01 05:39:12;;;;;;;18.60;11.35;;;;;;;11.02;98.76;101361.09;4883174;29;20081;-91
2022/01/01 05:41:52;;;;;;;;;;;;;;;11.21;98.72;101391.34;4879425;29;20063;-90
2022/01/01 05:44:22;;;;;;;17.00;11.65;;;;;;;11.05;98.73;101360.97;4893114;29;19972;-91
2022/01/01 05:46:53;;;;;;;;;;;;;;;11.20;98.93;101390.47;4887772;29;20097;-90
2022/01/01 05:49:29;;;;;;;18.95;11.63;;;;;;;11.22;99.01;101398.38;4885253;29;20414;-90
2022/01/01 05:51:59;;;;;;;18.05;12.00;;;;;;;11.00;99.03;101349.69;4885015;29;20063;-91
2022/01/01 05:54:33;;;;;;;18.37;11.43;;;;;;;10.82;98.94;101328.16;4884119;29;20059;-91
2022/01/01 05:57:01;;;;;;;15.52;11.18;;;;;;;10.92;99.42;101349.91;4895779;29;20494;-90
2022/01/01 05:59:40;;;;;;;16.08;10.77;;;;;;;10.78;99.65;101323.88;4891608;29;20068;-90
2022/01/01 06:02:09;;;;;;;21.95;12.32;;;;;;;10.90;99.47;101347.31;4883904;29;20052;-90
2022/01/01 06:04:38;;;;;;;15.82;11.13;;;;;;;10.90;99.65;101347.31;4881225;29;20498;-90
2022/01/01 06:07:10;;;;;;;15.98;11.15;;;;;;;10.96;99.50;101348.03;4881214;29;20057;-90
2022/01/01 06:09:37;;;;;;;15.10;10.85;;;;;;;11.15;99.21;101378.31;4888389;29;20053;-90
2022/01/01 06:12:06;;;;;;;16.77;11.32;;;;;;;10.98;99.77;101341.78;4896661;29;20075;-90
2022/01/01 06:14:37;;;;;;;19.60;11.35;;;;;;;10.96;99.68;101342.72;4894463;29;20077;-90
2022/01/01 06:17:12;;;;;;;18.85;11.73;;;;;;;11.05;100.00;101366.25;4880243;29;20590;-90
2022/01/01 06:19:43;;;;;;;17.55;11.68;;;;;;;10.70;100.00;101301.22;4878553;29;20120;-90
2022/01/01 06:22:10;;;;;;;17.00;11.57;;;;;;;10.90;100.00;101343.78;4885972;29;20051;-89
2022/01/01 06:24:40;;;;;;;16.55;11.07;;;;;;;10.67;100.00;101314.56;4891337;29;20080;-91
2022/01/01 06:27:10;;;;;;;19.58;11.73;;;;;;;10.78;100.00;101331.81;4886657;29;20045;-91
2022/01/01 06:29:39;;;;;;;18.02;12.55;;;;;;;10.97;100.00;101365.66;4876893;29;20057;-90
2022/01/01 06:32:10;;;;;;;19.10;12.02;;;;;;;10.99;100.00;101375.31;4888271;29;20080;-90
2022/01/01 06:34:40;;;;;;;16.58;12.07;;;;;;;10.84;100.00;101346.66;4889615;29;20057;-90
2022/01/01 06:37:10;;;;;;;21.23;13.00;;;;;;;10.61;100.00;101317.41;4875077;29;20072;-90
2022/01/01 06:39:37;;;;;;;15.75;11.05;;;;;;;10.71;100.00;101332.06;4880653;29;20053;-90
2022/01/01 06:42:09;;;;;;;19.33;12.07;;;;;;;10.73;100.00;101344.34;4881269;29;20056;-90
2022/01/01 06:44:36;;;;;;;21.58;13.02;;;;;;;10.44;100.00;101296.75;4886072;29;20121;-90
2022/01/01 06:47:04;;;;;;;17.50;12.75;;;;;;;10.38;100.00;101300.47;4882651;29;20136;-91
2022/01/01 06:49:34;;;;;;;19.63;12.45;;;;;;;10.52;100.00;101347.69;4880776;29;20095;-90
2022/01/01 06:52:06;;;;;;;21.02;13.90;;;;;;;10.54;100.00;101351.19;4878319;29;20100;-90
2022/01/01 06:54:36;;;;;;;19.23;12.07;;;;;;;10.52;100.00;101356.50;4878904;29;20053;-91
2022/01/01 06:57:06;;;;;;;22.80;14.10;;;;;;;10.60;100.00;101377.44;4875296;29;20060;-91
2022/01/01 06:59:36;;;;;;;19.70;12.10;;;;;;;10.77;100.00;101406.91;4882705;29;20061;-90
2022/01/01 07:02:03;;;;;;;20.52;13.38;;;;;;;10.38;100.00;101341.97;4880018;29;20057;-90
2022/01/01 07:04:30;;;;;;;21.00;13.52;;;;;;;10.45;100.00;101356.75;4881910;29;20108;-90
2022/01/01 07:06:57;;;;;;;18.23;13.13;;;;;;;10.65;100.00;101380.81;4880427;29;20060;-90
2022/01/01 07:09:25;;;;;;;22.35;14.00;;;;;;;10.86;100.00;101413.72;4874987;29;20061;-89
2022/01/01 07:11:57;;;;;;;18.48;13.35;;;;;;;10.56;100.00;101367.84;4861878;29;20065;-90
2022/01/01 07:14:24;;;;;;;21.02;13.70;;;;;;;10.71;100.00;101404.47;4878806;29;20160;-89
2022/01/01 07:16:51;;;;;;;19.65;13.63;;;;;;;10.69;100.00;101403.66;4882242;29;20147;-90
2022/01/01 07:19:28;;;;;;;20.13;13.40;;;;;;;10.74;100.00;101414.97;4877282;29;20061;-90
2022/01/01 07:22:00;;;;;;;25.60;13.57;;;;;;;10.70;100.00;101405.41;4889827;29;20036;-89
2022/01/01 07:24:27;;;;;;;21.75;13.52;;;;;;;10.87;100.00;101447.22;4900079;29;20124;-89
2022/01/01 07:26:55;;;;;;;22.48;13.50;;;;;;;10.84;100.00;101450.88;4896966;29;20063;-90
2022/01/01 07:29:22;;;;;;;23.85;14.40;;;;;;;10.48;100.00;101402.53;4890451;29;20113;-90
2022/01/01 07:31:53;;;;;;;20.42;12.95;;;;;;;10.61;100.00;101426.84;4883958;29;20052;-90
2022/01/01 07:34:23;;;;;;;22.52;14.45;;;;;;;10.47;100.00;101408.75;4869618;29;20045;-90
2022/01/01 07:36:51;;;;;;;;;;;;;;;10.81;100.00;101472.16;4892248;29;20489;-90
2022/01/01 07:39:18;;;;;;;24.08;16.30;;;;;;;10.46;100.00;101414.09;4880253;29;19958;-90
2022/01/01 07:41:47;;;;;;;26.05;16.02;;;;;;;10.68;100.00;101449.59;4880143;29;20060;-90
2022/01/01 07:44:16;;;;;;;24.25;15.68;;;;;;;10.63;100.00;101435.63;4887290;29;20064;-90
2022/01/01 07:46:49;;;;;;;21.52;14.45;;;;;;;10.51;100.00;101425.41;4868804;29;20063;-90
2022/01/01 07:49:20;;;;;;;24.40;15.90;;;;;;;10.86;100.00;101487.94;4881395;29;20067;-90
2022/01/01 07:51:50;;;;;;;22.17;14.10;;;;;;;10.73;100.00;101463.56;4880721;29;20061;-89
2022/01/01 07:54:18;;;;;;;22.55;14.82;;;;;;;10.70;100.00;101463.69;4877192;29;20080;-90
2022/01/01 07:56:47;;;;;;;25.48;15.93;;;;;;;10.70;100.00;101461.03;4877486;29;20064;-90
2022/01/01 07:59:14;;;;;;;28.20;15.68;;;;;;;10.73;100.00;101462.69;4861354;29;20054;-90
2022/01/01 08:01:43;;;;;;;25.55;15.00;;;;;;;10.90;100.00;101497.50;4880446;29;20068;-89
2022/01/01 08:04:10;;;;;;;23.52;14.95;;;;;;;10.76;100.00;101473.19;4876166;29;20057;-91
2022/01/01 08:06:41;;;;;;;24.63;14.60;;;;;;;10.67;100.00;101463.75;4881742;29;20053;-89
2022/01/01 08:09:08;;;;;;;24.77;15.68;;;;;;;10.46;100.00;101437.91;4877907;29;20049;-89
2022/01/01 08:11:35;;;;;;;23.00;14.43;;;;;;;10.80;100.00;101507.50;4885865;29;20057;-90
2022/01/01 08:14:07;;;;;;;23.42;15.30;;;;;;;10.43;100.00;101443.28;4887131;29;20063;-91
2022/01/01 08:16:35;;;;;;;24.85;14.93;;;;;;;10.79;100.00;101505.78;4890946;29;20114;-90
2022/01/01 08:19:02;;;;;;;23.15;16.30;;;;;;;10.58;100.00;101471.09;4885582;29;20059;-91
2022/01/01 08:21:29;;;;;;;26.85;15.73;;;;;;;10.65;100.00;101481.47;4873290;29;20049;-91
2022/01/01 08:23:56;;;;;;;24.40;15.48;;;;;;;10.76;100.00;101497.91;4880546;29;20057;-90
2022/01/01 08:26:23;;;;;;;24.70;15.73;;;;;;;10.78;100.00;101495.22;4880172;29;20044;-90
2022/01/01 08:28:55;;;;;;;25.15;15.27;;;;;;;10.52;100.00;101430.66;4883723;29;20053;-89
2022/01/01 08:31:25;;;;;;;23.38;15.32;;;;;;;10.70;100.00;101454.88;4878203;29;20056;-89
2022/01/01 08:33:53;;;;;;;22.48;15.20;;;;;;;10.62;100.00;101452.44;4881171;29;20052;-91
2022/01/01 08:36:24;;;;;;;25.48;15.27;;;;;;;10.78;100.00;101471.38;4876533;29;20585;-90
2022/01/01 08:38:59;;;;;;;20.00;14.40;;;;;;;10.64;100.00;101441.78;4884195;29;20045;-90
2022/01/01 08:41:26;;;;;;;20.45;13.80;;;;;;;11.04;100.00;101489.97;4877711;29;20105;-90
2022/01/01 08:43:55;;;;;;;22.30;14.73;;;;;;;10.86;100.00;101458.78;4886607;29;20120;-90
2022/01/01 08:46:22;;;;;;;23.58;15.00;;;;;;;11.03;100.00;101488.25;4883197;29;20051;-89
2022/01/01 08:48:57;;;;;;;22.20;14.60;;;;;;;11.15;100.00;101481.69;4892669;29;20052;-90
2022/01/01 08:51:28;;;;;;;20.75;13.70;;;;;;;11.06;100.00;101469.59;4889430;29;20049;-90
2022/01/01 08:53:55;;;;;;;22.08;13.70;;;;;;;11.06;100.00;101448.38;4888603;29;20057;-90
2022/01/01 08:56:25;;;;;;;20.33;13.50;;;;;;;11.09;99.16;101429.75;4887087;29;20057;-91
2022/01/01 08:58:57;;;;;;;20.40;13.73;;;;;;;11.23;99.22;101447.84;4889400;29;20057;-89
2022/01/01 09:01:27;;;;;;;23.10;14.45;;;;;;;11.11;99.44;101433.22;4887975;29;20053;-90
2022/01/01 09:03:55;;;;;;;20.80;13.82;;;;;;;11.23;99.17;101453.16;4894123;29;20041;-90
2022/01/01 09:06:29;;;;;;;21.58;13.88;;;;;;;11.18;99.08;101455.94;4894421;29;20057;-90
2022/01/01 09:08:57;;;;;;;22.52;13.70;;;;;;;11.22;99.12;101457.56;4879254;29;20707;-89
2022/01/01 09:11:31;;;;;;;21.05;13.32;;;;;;;11.36;99.36;101480.97;4879010;29;20063;-89
2022/01/01 09:14:02;;;;;;;19.58;13.13;;;;;;;11.26;99.14;101458.34;4878002;29;20060;-89
2022/01/01 09:16:33;;;;;;;21.08;13.32;;;;;;;11.14;98.83;101443.72;4874053;29;20053;-88
2022/01/01 09:19:03;;;;;;;18.77;12.90;;;;;;;10.95;98.71;101429.31;4883523;29;20049;-89
2022/01/01 09:21:30;;;;;;;;;;;;;;;11.30;99.76;101490.94;4875905;29;20117;-90
2022/01/01 09:23:57;;;;;;;19.58;12.45;;;;;;;11.12;99.72;101455.28;4873563;29;19935;-89
2022/01/01 09:26:26;;;;;;;21.83;13.55;;;;;;;11.13;99.31;101452.59;4883202;29;20139;-89
2022/01/01 09:28:53;;;;;;;19.02;13.18;;;;;;;11.34;98.96;101477.50;4877337;29;20104;-91
2022/01/01 09:31:20;;;;;;;20.65;13.57;;;;;;;11.31;98.95;101453.78;4871527;29;20045;-90
2022/01/01 09:33:48;;;;;;;19.17;12.43;;;;;;;11.30;98.69;101449.38;4878107;29;20128;-89
2022/01/01 09:36:17;;;;;;;19.20;12.88;;;;;;;11.21;97.48;101434.63;4861005;29;20079;-89
2022/01/01 09:38:46;;;;;;;20.45;13.32;;;;;;;11.36;97.26;101450.94;4884505;29;20077;-90
2022/01/01 09:41:15;;;;;;;22.83;14.07;;;;;;;11.35;97.34;101446.56;4860962;29;20065;-90
2022/01/01 09:43:42;;;;;;;19.83;12.43;;;;;;;11.18;97.54;101424.13;4884054;29;20064;-90
2022/01/01 09:46:13;;;;;;;19.58;13.10;;;;;;;11.20;97.77;101421.44;4867543;29;20064;-89
2022/01/01 09:48:41;;;;;;;17.58;12.75;;;;;;;11.24;96.83;101423.06;4886783;29;20051;-90
2022/01/01 09:51:09;;;;;;;20.05;13.60;;;;;;;11.46;96.30;101461.22;4876422;29;20061;-90
2022/01/01 09:53:48;;;;;;;19.20;13.25;;;;;;;11.41;96.25;101463.16;4870322;29;20061;-90
2022/01/01 09:56:17;;;;;;;21.30;13.35;;;;;;;11.59;96.60;101489.06;4878258;29;20143;-90
2022/01/01 09:58:45;;;;;;;21.80;14.87;;;;;;;11.30;97.04;101460.00;4881660;29;20136;-90
2022/01/01 10:01:23;;;;;;;20.35;12.93;;;;;;;11.28;96.77;101460.97;4877808;29;20048;-90
2022/01/01 10:03:52;;;;;;;18.60;12.50;;;;;;;11.51;97.22;101496.38;4883801;29;20113;-90
2022/01/01 10:06:22;;;;;;;21.88;13.35;;;;;;;11.53;97.16;101483.06;4868294;29;20085;-90
2022/01/01 10:09:03;;;;;;;17.58;12.93;;;;;;;11.43;97.70;101463.09;4879682;29;20060;-90
2022/01/01 10:11:36;;;;;;;18.38;12.57;;;;;;;11.44;97.39;101451.56;4847546;29;20066;-89
2022/01/01 10:14:06;;;;;;;19.13;13.38;;;;;;;11.60;95.44;101468.72;4857483;29;20061;-90
2022/01/01 10:16:44;;;;;;;18.73;12.77;;;;;;;11.69;96.50;101468.38;4861916;29;20049;-90
2022/01/01 10:19:11;;;;;;;20.40;13.25;;;;;;;11.69;95.64;101455.09;4856945;29;20041;-89
2022/01/01 10:21:41;;;;;;;18.95;13.10;;;;;;;11.88;95.57;101497.84;4860621;29;20065;-90
2022/01/01 10:24:18;;;;;;;20.20;13.93;;;;;;;11.79;94.38;101468.97;4848361;29;20066;-90
2022/01/01 10:29:35;;;;;;;20.15;13.27;;;;;;;11.67;93.86;101456.94;4859626;29;20052;-89
2022/01/01 10:32:11;;;;;;;22.75;14.70;;;;;;;11.84;94.58;101488.25;4859363;29;20053;-90
2022/01/01 10:34:46;;;;;;;19.63;13.52;;;;;;;11.71;94.22;101455.94;4863387;29;20106;-90
2022/01/01 10:37:33;;;;;;;19.40;13.20;;;;;;;11.81;93.50;101469.75;4853475;29;20053;-89
2022/01/01 10:40:06;;;;;;;21.98;13.98;;;;;;;11.92;93.08;101481.75;4861291;29;20050;-90
2022/01/01 10:42:33;;;;;;;19.73;13.07;;;;;;;11.84;93.90;101462.56;4862522;29;20057;-89
2022/01/01 10:45:05;;;;;;;25.08;14.75;;;;;;;11.76;92.60;101454.03;4878187;29;20037;-89
2022/01/01 10:47:35;;;;;;;22.02;15.02;;;;;;;12.04;90.96;101490.19;4880758;29;20064;-91
2022/01/01 10:50:20;;;;;;;24.20;16.23;;;;;;;11.64;91.45;101433.19;4884492;29;20272;-88
2022/01/01 10:52:47;;;;;;;26.33;15.68;;;;;;;11.79;92.14;101464.53;4862546;29;20486;-89
2022/01/01 10:55:16;;;;;;;22.85;15.38;;;;;;;11.60;91.63;101435.09;4872462;29;20058;-89
2022/01/01 10:57:55;;;;;;;22.15;14.98;;;;;;;12.03;91.46;101493.78;4855741;29;20057;-89
2022/01/01 11:00:24;;;;;;;26.70;15.65;;;;;;;11.86;90.90;101454.56;4864341;29;20136;-89
2022/01/01 11:02:55;;;;;;;25.10;16.10;;;;;;;11.76;90.35;101424.84;4862715;29;20061;-89
2022/01/01 11:05:38;;;;;;;23.75;15.32;;;;;;;11.70;90.83;101416.19;4847098;29;20136;-89
2022/01/01 11:08:08;;;;;;;25.35;15.15;;;;;;;11.79;90.35;101423.88;4868608;29;20514;-89
2022/01/01 11:10:37;;;;;;;23.95;15.43;;;;;;;12.16;90.06;101474.69;4875970;29;20049;-88
2022/01/01 11:13:06;;;;;;;27.23;15.40;;;;;;;12.16;90.06;101477.34;4902526;29;20045;-88
2022/01/01 11:15:33;;;;;;;22.00;15.05;;;;;;;12.23;90.73;101480.66;4895755;29;20116;-87
2022/01/01 11:18:05;;;;;;;24.20;15.55;;;;;;;12.20;90.18;101484.28;4893353;29;20101;-89
2022/01/01 11:20:34;;;;;;;27.77;15.65;;;;;;;12.15;89.87;101486.22;4892724;29;20063;-89
2022/01/01 11:23:07;;;;;;;22.98;15.13;;;;;;;12.16;90.14;101480.00;4894213;29;20129;-90
2022/01/01 11:25:38;;;;;;;22.95;14.13;;;;;;;11.94;89.45;101418.00;4885179;29;20050;-88
2022/01/01 11:28:10;;;;;;;25.25;15.07;;;;;;;12.32;88.66;101476.78;4871341;29;20091;-88
2022/01/01 11:30:45;;;;;;;22.35;14.30;;;;;;;12.26;88.67;101481.41;4880067;29;20063;-87
2022/01/01 11:33:17;;;;;;;22.00;14.85;;;;;;;12.06;89.36;101441.44;4882369;29;20049;-88